sensor_id;sensor_type;location;lat;lon;timestamp;P1;durP1;ratioP1;P2;durP2;ratioP2
64789;SDS011;51223;51.816;5.862;2022-09-28T00:02:06;1.65;;;1.25;;
64789;SDS011;51223;51.816;5.862;2022-09-28T00:04:33;1.95;;;1.05;;
64789;SDS011;51223;51.816;5.862;2022-09-28T00:06:59;0.98;;;0.95;;
64789;SDS011;51223;51.816;5.862;2022-09-28T00:09:25;1.92;;;1.58;;
64789;SDS011;51223;51.816;5.862;2022-09-28T00:11:51;0.90;;;0.90;;
64789;SDS011;51223;51.816;5.862;2022-09-28T00:14:22;2.13;;;1.20;;
64789;SDS011;51223;51.816;5.862;2022-09-28T00:16:48;2.25;;;1.65;;
64789;SDS011;51223;51.816;5.862;2022-09-28T00:19:14;1.20;;;1.10;;
64789;SDS011;51223;51.816;5.862;2022-09-28T00:21:41;1.73;;;1.58;;
64789;SDS011;51223;51.816;5.862;2022-09-28T00:24:09;1.27;;;0.95;;
64789;SDS011;51223;51.816;5.862;2022-09-28T00:26:42;2.00;;;1.67;;
64789;SDS011;51223;51.816;5.862;2022-09-28T00:29:20;0.95;;;0.93;;
64789;SDS011;51223;51.816;5.862;2022-09-28T00:31:53;1.38;;;1.23;;
64789;SDS011;51223;51.816;5.862;2022-09-28T00:34:28;1.48;;;1.38;;
64789;SDS011;51223;51.816;5.862;2022-09-28T00:36:56;2.33;;;1.50;;
64789;SDS011;51223;51.816;5.862;2022-09-28T00:39:22;3.67;;;1.52;;
64789;SDS011;51223;51.816;5.862;2022-09-28T00:41:48;1.67;;;1.17;;
64789;SDS011;51223;51.816;5.862;2022-09-28T00:44:34;0.95;;;0.95;;
64789;SDS011;51223;51.816;5.862;2022-09-28T00:49:51;2.88;;;2.00;;
64789;SDS011;51223;51.816;5.862;2022-09-28T00:52:29;1.67;;;1.13;;
64789;SDS011;51223;51.816;5.862;2022-09-28T00:54:59;2.20;;;1.73;;
64789;SDS011;51223;51.816;5.862;2022-09-28T00:57:27;1.02;;;0.93;;
64789;SDS011;51223;51.816;5.862;2022-09-28T00:59:55;4.93;;;1.88;;
64789;SDS011;51223;51.816;5.862;2022-09-28T01:02:24;2.10;;;1.85;;
64789;SDS011;51223;51.816;5.862;2022-09-28T01:04:49;2.65;;;1.83;;
64789;SDS011;51223;51.816;5.862;2022-09-28T01:07:16;2.08;;;1.80;;
64789;SDS011;51223;51.816;5.862;2022-09-28T01:09:42;3.42;;;1.88;;
64789;SDS011;51223;51.816;5.862;2022-09-28T01:12:10;1.42;;;1.27;;
64789;SDS011;51223;51.816;5.862;2022-09-28T01:14:37;1.88;;;1.10;;
64789;SDS011;51223;51.816;5.862;2022-09-28T01:17:10;2.08;;;1.60;;
64789;SDS011;51223;51.816;5.862;2022-09-28T01:28:43;3.13;;;2.00;;
64789;SDS011;51223;51.816;5.862;2022-09-28T01:31:12;2.30;;;1.90;;
64789;SDS011;51223;51.816;5.862;2022-09-28T01:33:41;5.68;;;2.17;;
64789;SDS011;51223;51.816;5.862;2022-09-28T01:36:12;4.32;;;2.30;;
64789;SDS011;51223;51.816;5.862;2022-09-28T01:38:54;2.00;;;1.80;;
64789;SDS011;51223;51.816;5.862;2022-09-28T01:41:25;2.38;;;2.17;;
64789;SDS011;51223;51.816;5.862;2022-09-28T01:43:54;1.77;;;1.50;;
64789;SDS011;51223;51.816;5.862;2022-09-28T01:46:30;3.20;;;1.88;;
64789;SDS011;51223;51.816;5.862;2022-09-28T01:51:53;2.28;;;1.65;;
64789;SDS011;51223;51.816;5.862;2022-09-28T01:54:30;1.80;;;1.27;;
64789;SDS011;51223;51.816;5.862;2022-09-28T01:57:08;1.90;;;1.48;;
64789;SDS011;51223;51.816;5.862;2022-09-28T01:59:50;2.15;;;1.75;;
64789;SDS011;51223;51.816;5.862;2022-09-28T02:02:23;2.92;;;2.08;;
64789;SDS011;51223;51.816;5.862;2022-09-28T02:05:02;2.13;;;1.55;;
64789;SDS011;51223;51.816;5.862;2022-09-28T02:07:43;3.00;;;2.10;;
64789;SDS011;51223;51.816;5.862;2022-09-28T02:10:15;1.50;;;1.40;;
64789;SDS011;51223;51.816;5.862;2022-09-28T02:12:48;1.55;;;1.45;;
64789;SDS011;51223;51.816;5.862;2022-09-28T02:15:35;2.75;;;2.00;;
64789;SDS011;51223;51.816;5.862;2022-09-28T02:18:05;3.67;;;2.05;;
64789;SDS011;51223;51.816;5.862;2022-09-28T02:20:31;2.42;;;1.95;;
64789;SDS011;51223;51.816;5.862;2022-09-28T02:22:59;3.33;;;2.22;;
64789;SDS011;51223;51.816;5.862;2022-09-28T02:25:29;2.97;;;1.75;;
64789;SDS011;51223;51.816;5.862;2022-09-28T02:28:04;2.07;;;1.87;;
64789;SDS011;51223;51.816;5.862;2022-09-28T02:30:34;3.13;;;2.22;;
64789;SDS011;51223;51.816;5.862;2022-09-28T02:33:44;1.52;;;1.13;;
64789;SDS011;51223;51.816;5.862;2022-09-28T02:36:01;3.33;;;2.15;;
64789;SDS011;51223;51.816;5.862;2022-09-28T02:38:30;1.88;;;1.55;;
64789;SDS011;51223;51.816;5.862;2022-09-28T02:49:36;5.00;;;1.77;;
64789;SDS011;51223;51.816;5.862;2022-09-28T02:52:35;1.77;;;1.52;;
64789;SDS011;51223;51.816;5.862;2022-09-28T02:55:17;1.88;;;1.67;;
64789;SDS011;51223;51.816;5.862;2022-09-28T02:58:02;2.35;;;1.98;;
64789;SDS011;51223;51.816;5.862;2022-09-28T03:00:44;3.88;;;2.10;;
64789;SDS011;51223;51.816;5.862;2022-09-28T03:06:19;2.03;;;1.27;;
64789;SDS011;51223;51.816;5.862;2022-09-28T03:08:53;1.98;;;1.27;;
64789;SDS011;51223;51.816;5.862;2022-09-28T03:11:27;22.45;;;3.30;;
64789;SDS011;51223;51.816;5.862;2022-09-28T03:13:57;3.22;;;2.53;;
64789;SDS011;51223;51.816;5.862;2022-09-28T03:16:24;3.08;;;1.88;;
64789;SDS011;51223;51.816;5.862;2022-09-28T03:18:51;3.20;;;1.73;;
64789;SDS011;51223;51.816;5.862;2022-09-28T03:21:17;3.17;;;2.47;;
64789;SDS011;51223;51.816;5.862;2022-09-28T03:23:43;4.65;;;2.33;;
64789;SDS011;51223;51.816;5.862;2022-09-28T03:26:09;2.15;;;1.83;;
64789;SDS011;51223;51.816;5.862;2022-09-28T03:28:37;3.72;;;2.38;;
64789;SDS011;51223;51.816;5.862;2022-09-28T03:31:03;2.22;;;1.73;;
64789;SDS011;51223;51.816;5.862;2022-09-28T03:33:29;2.20;;;1.98;;
64789;SDS011;51223;51.816;5.862;2022-09-28T03:35:55;5.50;;;2.08;;
64789;SDS011;51223;51.816;5.862;2022-09-28T03:38:20;2.22;;;1.70;;
64789;SDS011;51223;51.816;5.862;2022-09-28T03:40:56;1.55;;;1.35;;
64789;SDS011;51223;51.816;5.862;2022-09-28T03:43:23;1.98;;;1.77;;
64789;SDS011;51223;51.816;5.862;2022-09-28T03:45:54;3.05;;;1.77;;
64789;SDS011;51223;51.816;5.862;2022-09-28T03:48:21;2.08;;;1.42;;
64789;SDS011;51223;51.816;5.862;2022-09-28T03:50:51;2.42;;;1.67;;
64789;SDS011;51223;51.816;5.862;2022-09-28T03:53:17;3.63;;;1.52;;
64789;SDS011;51223;51.816;5.862;2022-09-28T03:55:43;2.60;;;1.75;;
64789;SDS011;51223;51.816;5.862;2022-09-28T03:58:09;1.90;;;1.50;;
64789;SDS011;51223;51.816;5.862;2022-09-28T04:00:37;1.85;;;1.58;;
64789;SDS011;51223;51.816;5.862;2022-09-28T04:03:03;1.98;;;1.73;;
64789;SDS011;51223;51.816;5.862;2022-09-28T04:05:29;2.00;;;1.63;;
64789;SDS011;51223;51.816;5.862;2022-09-28T04:07:55;9.85;;;2.03;;
64789;SDS011;51223;51.816;5.862;2022-09-28T04:10:22;1.88;;;1.50;;
64789;SDS011;51223;51.816;5.862;2022-09-28T04:12:49;1.42;;;1.23;;
64789;SDS011;51223;51.816;5.862;2022-09-28T04:15:18;4.47;;;2.15;;
64789;SDS011;51223;51.816;5.862;2022-09-28T04:17:43;2.90;;;1.77;;
64789;SDS011;51223;51.816;5.862;2022-09-28T04:20:09;2.40;;;1.65;;
64789;SDS011;51223;51.816;5.862;2022-09-28T04:22:35;5.22;;;1.23;;
64789;SDS011;51223;51.816;5.862;2022-09-28T04:25:02;3.95;;;1.75;;
64789;SDS011;51223;51.816;5.862;2022-09-28T04:27:29;2.22;;;1.60;;
64789;SDS011;51223;51.816;5.862;2022-09-28T04:30:13;2.58;;;1.90;;
64789;SDS011;51223;51.816;5.862;2022-09-28T04:32:39;1.85;;;1.73;;
64789;SDS011;51223;51.816;5.862;2022-09-28T04:35:05;2.95;;;2.08;;
64789;SDS011;51223;51.816;5.862;2022-09-28T04:37:31;6.57;;;1.80;;
64789;SDS011;51223;51.816;5.862;2022-09-28T04:39:58;1.73;;;1.52;;
64789;SDS011;51223;51.816;5.862;2022-09-28T04:42:24;1.27;;;1.13;;
64789;SDS011;51223;51.816;5.862;2022-09-28T04:44:50;2.95;;;1.90;;
64789;SDS011;51223;51.816;5.862;2022-09-28T04:47:15;1.20;;;1.10;;
64789;SDS011;51223;51.816;5.862;2022-09-28T04:49:41;4.07;;;1.55;;
64789;SDS011;51223;51.816;5.862;2022-09-28T04:52:07;1.48;;;1.30;;
64789;SDS011;51223;51.816;5.862;2022-09-28T04:54:33;2.35;;;1.77;;
64789;SDS011;51223;51.816;5.862;2022-09-28T04:56:59;4.97;;;1.60;;
64789;SDS011;51223;51.816;5.862;2022-09-28T04:59:24;6.13;;;1.75;;
64789;SDS011;51223;51.816;5.862;2022-09-28T05:01:50;2.03;;;1.15;;
64789;SDS011;51223;51.816;5.862;2022-09-28T05:04:17;1.75;;;1.52;;
64789;SDS011;51223;51.816;5.862;2022-09-28T05:06:43;3.30;;;1.90;;
64789;SDS011;51223;51.816;5.862;2022-09-28T05:09:09;1.30;;;1.20;;
64789;SDS011;51223;51.816;5.862;2022-09-28T05:11:38;2.28;;;1.75;;
64789;SDS011;51223;51.816;5.862;2022-09-28T05:14:03;2.65;;;1.60;;
64789;SDS011;51223;51.816;5.862;2022-09-28T05:16:30;1.15;;;1.05;;
64789;SDS011;51223;51.816;5.862;2022-09-28T05:18:58;1.77;;;1.63;;
64789;SDS011;51223;51.816;5.862;2022-09-28T05:21:24;2.05;;;1.67;;
64789;SDS011;51223;51.816;5.862;2022-09-28T05:23:51;1.90;;;1.45;;
64789;SDS011;51223;51.816;5.862;2022-09-28T05:26:20;1.63;;;1.30;;
64789;SDS011;51223;51.816;5.862;2022-09-28T05:28:47;4.03;;;2.30;;
64789;SDS011;51223;51.816;5.862;2022-09-28T05:31:13;1.33;;;1.08;;
64789;SDS011;51223;51.816;5.862;2022-09-28T05:33:39;1.40;;;1.10;;
64789;SDS011;51223;51.816;5.862;2022-09-28T05:36:07;1.38;;;1.27;;
64789;SDS011;51223;51.816;5.862;2022-09-28T05:38:35;5.95;;;1.73;;
64789;SDS011;51223;51.816;5.862;2022-09-28T05:41:01;1.98;;;1.15;;
64789;SDS011;51223;51.816;5.862;2022-09-28T05:43:27;1.25;;;0.95;;
64789;SDS011;51223;51.816;5.862;2022-09-28T05:45:52;2.25;;;1.38;;
64789;SDS011;51223;51.816;5.862;2022-09-28T05:48:18;1.92;;;1.38;;
64789;SDS011;51223;51.816;5.862;2022-09-28T05:50:48;1.67;;;1.30;;
64789;SDS011;51223;51.816;5.862;2022-09-28T05:53:18;2.95;;;1.90;;
64789;SDS011;51223;51.816;5.862;2022-09-28T05:55:44;2.05;;;1.58;;
64789;SDS011;51223;51.816;5.862;2022-09-28T05:58:10;2.10;;;1.73;;
64789;SDS011;51223;51.816;5.862;2022-09-28T06:00:35;1.55;;;1.10;;
64789;SDS011;51223;51.816;5.862;2022-09-28T06:03:02;1.63;;;1.15;;
64789;SDS011;51223;51.816;5.862;2022-09-28T06:05:33;1.80;;;1.30;;
64789;SDS011;51223;51.816;5.862;2022-09-28T06:08:00;1.27;;;1.02;;
64789;SDS011;51223;51.816;5.862;2022-09-28T06:10:28;3.45;;;1.75;;
64789;SDS011;51223;51.816;5.862;2022-09-28T06:12:54;1.65;;;1.27;;
64789;SDS011;51223;51.816;5.862;2022-09-28T06:15:21;1.42;;;1.10;;
64789;SDS011;51223;51.816;5.862;2022-09-28T06:17:55;1.38;;;1.27;;
64789;SDS011;51223;51.816;5.862;2022-09-28T06:20:32;1.75;;;1.58;;
64789;SDS011;51223;51.816;5.862;2022-09-28T06:23:01;3.40;;;1.98;;
64789;SDS011;51223;51.816;5.862;2022-09-28T06:25:27;3.03;;;1.63;;
64789;SDS011;51223;51.816;5.862;2022-09-28T06:27:56;2.13;;;1.58;;
64789;SDS011;51223;51.816;5.862;2022-09-28T06:30:25;1.60;;;1.50;;
64789;SDS011;51223;51.816;5.862;2022-09-28T06:32:56;2.83;;;1.42;;
64789;SDS011;51223;51.816;5.862;2022-09-28T06:35:24;1.65;;;1.25;;
64789;SDS011;51223;51.816;5.862;2022-09-28T06:37:51;2.22;;;1.52;;
64789;SDS011;51223;51.816;5.862;2022-09-28T06:40:18;3.03;;;1.35;;
64789;SDS011;51223;51.816;5.862;2022-09-28T06:43:01;1.73;;;0.80;;
64789;SDS011;51223;51.816;5.862;2022-09-28T06:45:35;1.70;;;1.02;;
64789;SDS011;51223;51.816;5.862;2022-09-28T06:48:02;0.75;;;0.75;;
64789;SDS011;51223;51.816;5.862;2022-09-28T06:50:30;1.90;;;1.25;;
64789;SDS011;51223;51.816;5.862;2022-09-28T06:52:58;2.50;;;1.80;;
64789;SDS011;51223;51.816;5.862;2022-09-28T06:55:25;1.35;;;1.23;;
64789;SDS011;51223;51.816;5.862;2022-09-28T06:58:25;3.05;;;1.38;;
64789;SDS011;51223;51.816;5.862;2022-09-28T07:00:45;1.30;;;0.95;;
64789;SDS011;51223;51.816;5.862;2022-09-28T07:03:14;1.58;;;1.27;;
64789;SDS011;51223;51.816;5.862;2022-09-28T07:05:44;1.38;;;0.85;;
64789;SDS011;51223;51.816;5.862;2022-09-28T07:08:13;0.80;;;0.80;;
64789;SDS011;51223;51.816;5.862;2022-09-28T07:10:42;5.20;;;1.08;;
64789;SDS011;51223;51.816;5.862;2022-09-28T07:13:10;1.33;;;0.90;;
64789;SDS011;51223;51.816;5.862;2022-09-28T07:15:36;0.45;;;0.40;;
64789;SDS011;51223;51.816;5.862;2022-09-28T07:18:03;1.20;;;0.95;;
64789;SDS011;51223;51.816;5.862;2022-09-28T07:20:30;0.75;;;0.52;;
64789;SDS011;51223;51.816;5.862;2022-09-28T07:22:58;1.05;;;0.90;;
64789;SDS011;51223;51.816;5.862;2022-09-28T07:25:25;0.77;;;0.50;;
64789;SDS011;51223;51.816;5.862;2022-09-28T07:27:55;2.50;;;1.70;;
64789;SDS011;51223;51.816;5.862;2022-09-28T07:30:22;0.38;;;0.32;;
64789;SDS011;51223;51.816;5.862;2022-09-28T07:32:50;0.85;;;0.60;;
64789;SDS011;51223;51.816;5.862;2022-09-28T07:35:16;3.22;;;0.93;;
64789;SDS011;51223;51.816;5.862;2022-09-28T07:37:42;0.50;;;0.45;;
64789;SDS011;51223;51.816;5.862;2022-09-28T07:40:08;0.30;;;0.30;;
64789;SDS011;51223;51.816;5.862;2022-09-28T07:42:53;0.93;;;0.65;;
64789;SDS011;51223;51.816;5.862;2022-09-28T07:45:19;0.80;;;0.65;;
64789;SDS011;51223;51.816;5.862;2022-09-28T07:47:54;0.40;;;0.40;;
64789;SDS011;51223;51.816;5.862;2022-09-28T07:50:23;0.30;;;0.30;;
64789;SDS011;51223;51.816;5.862;2022-09-28T07:52:49;0.30;;;0.30;;
64789;SDS011;51223;51.816;5.862;2022-09-28T07:55:15;0.63;;;0.63;;
64789;SDS011;51223;51.816;5.862;2022-09-28T07:57:41;2.30;;;0.88;;
64789;SDS011;51223;51.816;5.862;2022-09-28T08:00:07;0.47;;;0.47;;
64789;SDS011;51223;51.816;5.862;2022-09-28T08:02:34;0.73;;;0.50;;
64789;SDS011;51223;51.816;5.862;2022-09-28T08:05:01;0.93;;;0.90;;
64789;SDS011;51223;51.816;5.862;2022-09-28T08:07:27;0.63;;;0.32;;
64789;SDS011;51223;51.816;5.862;2022-09-28T08:09:53;1.33;;;0.90;;
64789;SDS011;51223;51.816;5.862;2022-09-28T08:12:19;2.08;;;0.90;;
64789;SDS011;51223;51.816;5.862;2022-09-28T08:14:46;3.60;;;0.73;;
64789;SDS011;51223;51.816;5.862;2022-09-28T08:17:12;0.90;;;0.75;;
64789;SDS011;51223;51.816;5.862;2022-09-28T08:19:38;0.40;;;0.40;;
64789;SDS011;51223;51.816;5.862;2022-09-28T08:22:22;0.95;;;0.43;;
64789;SDS011;51223;51.816;5.862;2022-09-28T08:24:48;0.70;;;0.60;;
64789;SDS011;51223;51.816;5.862;2022-09-28T08:27:14;0.63;;;0.50;;
64789;SDS011;51223;51.816;5.862;2022-09-28T08:29:41;1.55;;;0.90;;
64789;SDS011;51223;51.816;5.862;2022-09-28T08:32:08;0.30;;;0.30;;
64789;SDS011;51223;51.816;5.862;2022-09-28T08:34:35;2.05;;;0.10;;
64789;SDS011;51223;51.816;5.862;2022-09-28T08:37:01;0.52;;;0.52;;
64789;SDS011;51223;51.816;5.862;2022-09-28T08:39:28;0.30;;;0.30;;
64789;SDS011;51223;51.816;5.862;2022-09-28T08:44:30;1.35;;;0.40;;
64789;SDS011;51223;51.816;5.862;2022-09-28T08:50:01;0.45;;;0.40;;
64789;SDS011;51223;51.816;5.862;2022-09-28T08:52:31;1.05;;;0.40;;
64789;SDS011;51223;51.816;5.862;2022-09-28T08:55:48;0.32;;;0.32;;
64789;SDS011;51223;51.816;5.862;2022-09-28T08:57:58;0.75;;;0.47;;
64789;SDS011;51223;51.816;5.862;2022-09-28T09:00:33;0.50;;;0.32;;
64789;SDS011;51223;51.816;5.862;2022-09-28T09:03:04;0.70;;;0.63;;
64789;SDS011;51223;51.816;5.862;2022-09-28T09:05:40;16.65;;;0.70;;
64789;SDS011;51223;51.816;5.862;2022-09-28T09:11:20;0.45;;;0.45;;
64789;SDS011;51223;51.816;5.862;2022-09-28T09:14:10;0.38;;;0.38;;
64789;SDS011;51223;51.816;5.862;2022-09-28T09:19:45;0.20;;;0.20;;
64789;SDS011;51223;51.816;5.862;2022-09-28T09:22:23;0.20;;;0.10;;
64789;SDS011;51223;51.816;5.862;2022-09-28T09:25:18;0.20;;;0.20;;
64789;SDS011;51223;51.816;5.862;2022-09-28T09:33:35;0.13;;;0.00;;
64789;SDS011;51223;51.816;5.862;2022-09-28T09:38:59;0.77;;;0.40;;
64789;SDS011;51223;51.816;5.862;2022-09-28T09:41:48;0.20;;;0.20;;
64789;SDS011;51223;51.816;5.862;2022-09-28T09:46:59;0.40;;;0.40;;
64789;SDS011;51223;51.816;5.862;2022-09-28T09:49:33;0.60;;;0.35;;
64789;SDS011;51223;51.816;5.862;2022-09-28T09:52:21;0.40;;;0.30;;
64789;SDS011;51223;51.816;5.862;2022-09-28T09:55:18;0.15;;;0.15;;
64789;SDS011;51223;51.816;5.862;2022-09-28T09:57:50;1.98;;;1.40;;
64789;SDS011;51223;51.816;5.862;2022-09-28T10:00:30;0.30;;;0.20;;
64789;SDS011;51223;51.816;5.862;2022-09-28T10:02:57;2.72;;;0.40;;
64789;SDS011;51223;51.816;5.862;2022-09-28T10:05:25;0.22;;;0.22;;
64789;SDS011;51223;51.816;5.862;2022-09-28T10:07:59;0.77;;;0.77;;
64789;SDS011;51223;51.816;5.862;2022-09-28T10:10:29;0.55;;;0.20;;
64789;SDS011;51223;51.816;5.862;2022-09-28T10:12:59;1.75;;;0.77;;
64789;SDS011;51223;51.816;5.862;2022-09-28T10:15:27;0.22;;;0.22;;
64789;SDS011;51223;51.816;5.862;2022-09-28T10:17:54;0.73;;;0.55;;
64789;SDS011;51223;51.816;5.862;2022-09-28T10:20:22;0.00;;;0.00;;
64789;SDS011;51223;51.816;5.862;2022-09-28T10:22:50;0.10;;;0.10;;
64789;SDS011;51223;51.816;5.862;2022-09-28T10:25:16;0.10;;;0.10;;
64789;SDS011;51223;51.816;5.862;2022-09-28T10:27:43;0.45;;;0.20;;
64789;SDS011;51223;51.816;5.862;2022-09-28T10:30:17;0.25;;;0.10;;
64789;SDS011;51223;51.816;5.862;2022-09-28T10:32:51;0.60;;;0.25;;
64789;SDS011;51223;51.816;5.862;2022-09-28T10:35:21;0.30;;;0.30;;
64789;SDS011;51223;51.816;5.862;2022-09-28T10:38:14;1.65;;;0.10;;
64789;SDS011;51223;51.816;5.862;2022-09-28T10:43:19;0.17;;;0.10;;
64789;SDS011;51223;51.816;5.862;2022-09-28T10:45:48;0.10;;;0.10;;
64789;SDS011;51223;51.816;5.862;2022-09-28T10:48:25;0.17;;;0.17;;
64789;SDS011;51223;51.816;5.862;2022-09-28T10:51:05;0.38;;;0.20;;
64789;SDS011;51223;51.816;5.862;2022-09-28T10:53:32;0.17;;;0.17;;
64789;SDS011;51223;51.816;5.862;2022-09-28T10:56:02;0.10;;;0.10;;
64789;SDS011;51223;51.816;5.862;2022-09-28T10:58:32;0.43;;;0.20;;
64789;SDS011;51223;51.816;5.862;2022-09-28T11:01:03;0.03;;;0.03;;
64789;SDS011;51223;51.816;5.862;2022-09-28T11:04:03;0.10;;;0.10;;
64789;SDS011;51223;51.816;5.862;2022-09-28T11:06:34;0.00;;;0.00;;
64789;SDS011;51223;51.816;5.862;2022-09-28T11:09:03;0.03;;;0.03;;
64789;SDS011;51223;51.816;5.862;2022-09-28T11:11:40;0.20;;;0.20;;
64789;SDS011;51223;51.816;5.862;2022-09-28T11:14:17;0.00;;;0.00;;
64789;SDS011;51223;51.816;5.862;2022-09-28T11:16:45;0.00;;;0.00;;
64789;SDS011;51223;51.816;5.862;2022-09-28T11:21:45;0.10;;;0.10;;
64789;SDS011;51223;51.816;5.862;2022-09-28T11:26:41;0.05;;;0.05;;
64789;SDS011;51223;51.816;5.862;2022-09-28T11:32:06;0.20;;;0.20;;
64789;SDS011;51223;51.816;5.862;2022-09-28T11:34:35;4.07;;;1.00;;
64789;SDS011;51223;51.816;5.862;2022-09-28T11:39:46;0.00;;;0.00;;
64789;SDS011;51223;51.816;5.862;2022-09-28T11:42:28;0.10;;;0.10;;
64789;SDS011;51223;51.816;5.862;2022-09-28T11:47:48;0.30;;;0.20;;
64789;SDS011;51223;51.816;5.862;2022-09-28T11:55:59;0.10;;;0.10;;
64789;SDS011;51223;51.816;5.862;2022-09-28T12:03:52;2.00;;;0.20;;
64789;SDS011;51223;51.816;5.862;2022-09-28T12:06:23;0.05;;;0.05;;
64789;SDS011;51223;51.816;5.862;2022-09-28T12:08:59;0.10;;;0.10;;
64789;SDS011;51223;51.816;5.862;2022-09-28T12:11:39;0.30;;;0.30;;
64789;SDS011;51223;51.816;5.862;2022-09-28T12:14:10;0.00;;;0.00;;
64789;SDS011;51223;51.816;5.862;2022-09-28T12:16:46;0.10;;;0.10;;
64789;SDS011;51223;51.816;5.862;2022-09-28T12:19:21;0.57;;;0.38;;
64789;SDS011;51223;51.816;5.862;2022-09-28T12:21:54;0.40;;;0.25;;
64789;SDS011;51223;51.816;5.862;2022-09-28T12:26:59;0.10;;;0.10;;
64789;SDS011;51223;51.816;5.862;2022-09-28T12:29:31;16.33;;;0.47;;
64789;SDS011;51223;51.816;5.862;2022-09-28T12:32:15;0.22;;;0.20;;
64789;SDS011;51223;51.816;5.862;2022-09-28T12:35:17;0.00;;;0.00;;
64789;SDS011;51223;51.816;5.862;2022-09-28T12:40:24;0.30;;;0.30;;
64789;SDS011;51223;51.816;5.862;2022-09-28T12:49:27;7.78;;;0.45;;
64789;SDS011;51223;51.816;5.862;2022-09-28T12:52:02;0.10;;;0.10;;
64789;SDS011;51223;51.816;5.862;2022-09-28T12:54:43;0.10;;;0.10;;
64789;SDS011;51223;51.816;5.862;2022-09-28T13:13:29;0.28;;;0.10;;
64789;SDS011;51223;51.816;5.862;2022-09-28T13:16:11;2.67;;;0.50;;
64789;SDS011;51223;51.816;5.862;2022-09-28T13:18:50;0.20;;;0.20;;
64789;SDS011;51223;51.816;5.862;2022-09-28T13:21:26;1.30;;;0.40;;
64789;SDS011;51223;51.816;5.862;2022-09-28T13:24:03;0.00;;;0.00;;
64789;SDS011;51223;51.816;5.862;2022-09-28T13:26:34;0.20;;;0.20;;
64789;SDS011;51223;51.816;5.862;2022-09-28T13:29:11;0.57;;;0.25;;
64789;SDS011;51223;51.816;5.862;2022-09-28T13:31:42;0.00;;;0.00;;
64789;SDS011;51223;51.816;5.862;2022-09-28T13:34:26;0.13;;;0.10;;
64789;SDS011;51223;51.816;5.862;2022-09-28T13:39:51;3.00;;;0.40;;
64789;SDS011;51223;51.816;5.862;2022-09-28T13:42:25;0.13;;;0.13;;
64789;SDS011;51223;51.816;5.862;2022-09-28T13:45:39;0.00;;;0.00;;
64789;SDS011;51223;51.816;5.862;2022-09-28T13:50:45;0.30;;;0.30;;
64789;SDS011;51223;51.816;5.862;2022-09-28T14:00:47;0.25;;;0.25;;
64789;SDS011;51223;51.816;5.862;2022-09-28T14:11:41;0.20;;;0.20;;
64789;SDS011;51223;51.816;5.862;2022-09-28T14:14:24;0.17;;;0.17;;
64789;SDS011;51223;51.816;5.862;2022-09-28T14:19:49;0.00;;;0.00;;
64789;SDS011;51223;51.816;5.862;2022-09-28T14:22:31;0.13;;;0.10;;
64789;SDS011;51223;51.816;5.862;2022-09-28T14:25:11;0.10;;;0.10;;
64789;SDS011;51223;51.816;5.862;2022-09-28T14:30:43;0.28;;;0.28;;
64789;SDS011;51223;51.816;5.862;2022-09-28T14:33:21;0.08;;;0.08;;
64789;SDS011;51223;51.816;5.862;2022-09-28T14:35:53;0.15;;;0.00;;
64789;SDS011;51223;51.816;5.862;2022-09-28T14:38:29;0.35;;;0.10;;
64789;SDS011;51223;51.816;5.862;2022-09-28T14:48:50;0.10;;;0.10;;
64789;SDS011;51223;51.816;5.862;2022-09-28T14:54:37;0.43;;;0.38;;
64789;SDS011;51223;51.816;5.862;2022-09-28T14:59:18;0.05;;;0.05;;
64789;SDS011;51223;51.816;5.862;2022-09-28T15:01:52;0.40;;;0.10;;
64789;SDS011;51223;51.816;5.862;2022-09-28T15:04:22;0.10;;;0.10;;
64789;SDS011;51223;51.816;5.862;2022-09-28T15:06:52;0.10;;;0.10;;
64789;SDS011;51223;51.816;5.862;2022-09-28T15:09:34;0.10;;;0.10;;
64789;SDS011;51223;51.816;5.862;2022-09-28T15:12:02;1.25;;;0.35;;
64789;SDS011;51223;51.816;5.862;2022-09-28T15:14:28;0.28;;;0.20;;
64789;SDS011;51223;51.816;5.862;2022-09-28T15:16:56;0.52;;;0.40;;
64789;SDS011;51223;51.816;5.862;2022-09-28T15:21:53;0.40;;;0.40;;
64789;SDS011;51223;51.816;5.862;2022-09-28T15:24:22;0.40;;;0.40;;
64789;SDS011;51223;51.816;5.862;2022-09-28T15:26:50;0.80;;;0.60;;
64789;SDS011;51223;51.816;5.862;2022-09-28T15:29:18;0.52;;;0.20;;
64789;SDS011;51223;51.816;5.862;2022-09-28T15:31:45;0.52;;;0.20;;
64789;SDS011;51223;51.816;5.862;2022-09-28T15:37:27;1.25;;;0.52;;
64789;SDS011;51223;51.816;5.862;2022-09-28T15:39:57;0.43;;;0.40;;
64789;SDS011;51223;51.816;5.862;2022-09-28T15:42:24;1.58;;;0.65;;
64789;SDS011;51223;51.816;5.862;2022-09-28T15:47:46;2.63;;;1.90;;
64789;SDS011;51223;51.816;5.862;2022-09-28T15:50:19;3.03;;;1.00;;
64789;SDS011;51223;51.816;5.862;2022-09-28T15:52:52;1.05;;;0.80;;
64789;SDS011;51223;51.816;5.862;2022-09-28T15:55:27;3.42;;;2.40;;
64789;SDS011;51223;51.816;5.862;2022-09-28T16:00:37;5.65;;;1.40;;
64789;SDS011;51223;51.816;5.862;2022-09-28T16:08:18;0.32;;;0.32;;
64789;SDS011;51223;51.816;5.862;2022-09-28T16:10:50;1.42;;;0.68;;
64789;SDS011;51223;51.816;5.862;2022-09-28T16:16:25;0.93;;;0.40;;
64789;SDS011;51223;51.816;5.862;2022-09-28T16:18:55;0.30;;;0.28;;
64789;SDS011;51223;51.816;5.862;2022-09-28T16:21:25;0.70;;;0.40;;
64789;SDS011;51223;51.816;5.862;2022-09-28T16:23:58;2.28;;;0.85;;
64789;SDS011;51223;51.816;5.862;2022-09-28T16:26:28;0.50;;;0.45;;
64789;SDS011;51223;51.816;5.862;2022-09-28T16:28:57;1.67;;;0.70;;
64789;SDS011;51223;51.816;5.862;2022-09-28T16:31:25;2.33;;;1.42;;
64789;SDS011;51223;51.816;5.862;2022-09-28T16:33:57;1.58;;;0.93;;
64789;SDS011;51223;51.816;5.862;2022-09-28T16:36:43;5.68;;;0.93;;
64789;SDS011;51223;51.816;5.862;2022-09-28T16:39:12;1.20;;;0.93;;
64789;SDS011;51223;51.816;5.862;2022-09-28T16:41:41;1.42;;;1.05;;
64789;SDS011;51223;51.816;5.862;2022-09-28T16:44:20;0.68;;;0.38;;
64789;SDS011;51223;51.816;5.862;2022-09-28T16:46:49;0.98;;;0.68;;
64789;SDS011;51223;51.816;5.862;2022-09-28T16:49:16;0.55;;;0.45;;
64789;SDS011;51223;51.816;5.862;2022-09-28T16:51:45;2.15;;;1.30;;
64789;SDS011;51223;51.816;5.862;2022-09-28T16:54:13;4.53;;;0.80;;
64789;SDS011;51223;51.816;5.862;2022-09-28T16:57:02;2.03;;;0.77;;
64789;SDS011;51223;51.816;5.862;2022-09-28T16:59:29;1.00;;;0.90;;
64789;SDS011;51223;51.816;5.862;2022-09-28T17:01:56;0.93;;;0.85;;
64789;SDS011;51223;51.816;5.862;2022-09-28T17:04:23;0.80;;;0.80;;
64789;SDS011;51223;51.816;5.862;2022-09-28T17:06:50;1.38;;;0.75;;
64789;SDS011;51223;51.816;5.862;2022-09-28T17:09:19;0.93;;;0.52;;
64789;SDS011;51223;51.816;5.862;2022-09-28T17:11:46;1.30;;;0.90;;
64789;SDS011;51223;51.816;5.862;2022-09-28T17:14:12;1.38;;;0.90;;
64789;SDS011;51223;51.816;5.862;2022-09-28T17:16:38;1.20;;;1.00;;
64789;SDS011;51223;51.816;5.862;2022-09-28T17:19:11;0.70;;;0.60;;
64789;SDS011;51223;51.816;5.862;2022-09-28T17:21:42;2.88;;;1.20;;
64789;SDS011;51223;51.816;5.862;2022-09-28T17:24:08;1.33;;;1.00;;
64789;SDS011;51223;51.816;5.862;2022-09-28T17:26:33;1.38;;;1.02;;
64789;SDS011;51223;51.816;5.862;2022-09-28T17:29:01;3.45;;;1.98;;
64789;SDS011;51223;51.816;5.862;2022-09-28T17:31:28;3.08;;;2.00;;
64789;SDS011;51223;51.816;5.862;2022-09-28T17:33:54;2.13;;;1.73;;
64789;SDS011;51223;51.816;5.862;2022-09-28T17:36:20;4.50;;;2.72;;
64789;SDS011;51223;51.816;5.862;2022-09-28T17:38:46;4.50;;;2.08;;
64789;SDS011;51223;51.816;5.862;2022-09-28T17:41:14;2.45;;;1.65;;
64789;SDS011;51223;51.816;5.862;2022-09-28T17:43:41;7.47;;;1.63;;
64789;SDS011;51223;51.816;5.862;2022-09-28T17:48:57;5.07;;;1.23;;
64789;SDS011;51223;51.816;5.862;2022-09-28T17:51:28;0.80;;;0.80;;
64789;SDS011;51223;51.816;5.862;2022-09-28T17:53:55;1.23;;;0.80;;
64789;SDS011;51223;51.816;5.862;2022-09-28T17:56:22;3.28;;;1.30;;
64789;SDS011;51223;51.816;5.862;2022-09-28T17:58:49;0.73;;;0.63;;